Time;durP1;ratioP1;P1;durP2;ratioP2;P2;SDS_P1;SDS_P2;PMS_P1;PMS_P2;Temp;Humidity;BMP_temperature;BMP_pressure;BME280_temperature;BME280_humidity;BME280_pressure;Samples;Min_cycle;Max_cycle;Signal;HPM_P1;HPM_P2
2022/01/29 00:00:17;;;;;;;20.75;19.42;;;4.00;83.10;;;;;;5075405;28;20111;-67
2022/01/29 00:02:43;;;;;;;20.58;19.23;;;3.90;83.20;;;;;;5093197;28;20028;-66
2022/01/29 00:05:10;;;;;;;20.63;19.25;;;4.00;83.40;;;;;;5075080;28;20066;-67
2022/01/29 00:07:38;;;;;;;20.13;18.48;;;3.90;83.40;;;;;;5075242;28;20035;-66
2022/01/29 00:10:05;;;;;;;22.50;20.98;;;3.90;83.50;;;;;;5093542;28;20020;-67
2022/01/29 00:12:31;;;;;;;21.88;20.00;;;3.90;83.60;;;;;;5092188;28;20032;-65
2022/01/29 00:14:57;;;;;;;24.67;22.95;;;3.90;83.60;;;;;;5092124;28;20025;-66
2022/01/29 00:17:23;;;;;;;21.63;19.88;;;3.90;83.80;;;;;;5073891;28;20481;-65
2022/01/29 00:19:48;;;;;;;20.90;19.15;;;3.90;83.80;;;;;;5092014;28;20107;-68
2022/01/29 00:22:14;;;;;;;20.33;19.02;;;3.90;83.90;;;;;;5075117;28;20028;-68
2022/01/29 00:24:39;;;;;;;17.40;16.33;;;4.00;83.90;;;;;;5093567;28;20052;-68
2022/01/29 00:27:09;;;;;;;18.27;17.23;;;3.90;83.80;;;;;;5075440;28;20024;-67
2022/01/29 00:29:38;;;;;;;19.42;18.10;;;3.90;83.90;;;;;;5093230;28;20367;-67
2022/01/29 00:32:05;;;;;;;17.83;16.73;;;4.00;84.00;;;;;;5078228;28;20028;-66
2022/01/29 00:34:30;;;;;;;18.23;17.13;;;3.90;83.80;;;;;;5096508;28;20038;-66
2022/01/29 00:36:56;;;;;;;20.00;18.98;;;3.90;83.80;;;;;;5096761;28;20028;-66
2022/01/29 00:39:22;;;;;;;19.17;17.55;;;3.90;83.90;;;;;;5078527;28;20028;-68
2022/01/29 00:41:49;;;;;;;19.13;17.83;;;3.80;83.90;;;;;;5078560;28;20129;-67
2022/01/29 00:44:14;;;;;;;19.60;18.42;;;3.80;84.10;;;;;;5096752;28;20032;-66
2022/01/29 00:46:41;;;;;;;18.38;17.20;;;3.80;84.10;;;;;;5096451;28;20042;-66
2022/01/29 00:49:08;;;;;;;19.25;18.17;;;3.80;84.10;;;;;;5096202;28;20089;-66
2022/01/29 00:51:34;;;;;;;17.60;16.60;;;3.90;84.10;;;;;;5096239;28;20028;-67
2022/01/29 00:54:00;;;;;;;18.10;17.17;;;3.80;83.90;;;;;;5096318;28;20031;-67
2022/01/29 00:56:26;;;;;;;18.02;16.83;;;3.80;84.00;;;;;;5096572;28;20055;-66
2022/01/29 00:58:51;;;;;;;17.85;16.80;;;3.80;83.90;;;;;;5078027;28;20366;-67
2022/01/29 01:01:17;;;;;;;18.65;17.55;;;3.80;83.80;;;;;;5096516;28;20099;-66
2022/01/29 01:03:43;;;;;;;17.38;16.25;;;3.80;83.70;;;;;;5096026;28;20028;-67
2022/01/29 01:06:09;;;;;;;17.77;16.77;;;3.80;83.70;;;;;;5096224;28;20045;-67
2022/01/29 01:08:34;;;;;;;18.70;17.60;;;3.80;83.90;;;;;;5096295;28;20087;-66
2022/01/29 01:11:02;;;;;;;19.35;18.25;;;3.80;83.90;;;;;;5096025;28;20099;-66
2022/01/29 01:13:28;;;;;;;20.67;19.42;;;3.80;83.90;;;;;;5096089;28;20035;-67
2022/01/29 01:15:53;;;;;;;19.85;18.65;;;3.80;83.90;;;;;;5077640;28;20455;-66
2022/01/29 01:18:19;;;;;;;20.05;18.95;;;3.80;84.00;;;;;;5095934;28;20028;-67
2022/01/29 01:20:45;;;;;;;18.55;17.38;;;3.80;84.00;;;;;;5095952;28;20438;-67
2022/01/29 01:23:11;;;;;;;19.23;18.02;;;3.80;84.10;;;;;;5095759;28;20048;-67
2022/01/29 01:25:36;;;;;;;19.73;18.52;;;3.90;84.20;;;;;;5077830;28;20032;-67
2022/01/29 01:28:02;;;;;;;21.13;19.88;;;3.90;84.20;;;;;;5095851;28;20443;-67
2022/01/29 01:30:28;;;;;;;18.00;16.88;;;3.90;84.10;;;;;;5077551;28;20020;-66
2022/01/29 01:32:54;;;;;;;19.27;18.30;;;3.90;84.00;;;;;;5095702;28;20372;-67
2022/01/29 01:35:28;;;;;;;18.25;16.92;;;4.00;84.10;;;;;;5095755;28;20025;-66
2022/01/29 01:40:34;;;;;;;19.45;18.00;;;3.90;84.00;;;;;;5095576;28;20035;-68
2022/01/29 01:43:01;;;;;;;17.58;16.58;;;4.00;84.10;;;;;;5095328;28;20465;-65
2022/01/29 01:45:30;;;;;;;19.55;18.08;;;4.00;84.10;;;;;;5095405;28;20016;-66
2022/01/29 01:47:57;;;;;;;17.42;16.33;;;4.00;84.20;;;;;;5095302;28;20466;-66
2022/01/29 01:50:24;;;;;;;15.07;14.20;;;4.00;84.00;;;;;;5095282;28;20102;-66
2022/01/29 01:52:51;;;;;;;16.55;15.55;;;4.10;84.10;;;;;;5075921;28;20131;-65
2022/01/29 01:55:17;;;;;;;16.67;15.68;;;4.10;83.90;;;;;;5095269;28;20036;-65
2022/01/29 01:57:44;;;;;;;20.08;18.85;;;4.00;83.90;;;;;;5076878;28;20024;-66
2022/01/29 02:00:10;;;;;;;15.60;14.73;;;4.00;83.90;;;;;;5095457;28;20028;-65
2022/01/29 02:02:36;;;;;;;16.55;15.60;;;4.00;83.90;;;;;;5076805;28;20035;-66
2022/01/29 02:05:02;;;;;;;16.73;15.60;;;4.00;83.80;;;;;;5076761;28;20424;-66
2022/01/29 02:07:29;;;;;;;18.98;17.95;;;4.00;83.90;;;;;;5094803;28;20103;-65
2022/01/29 02:09:55;;;;;;;18.60;17.60;;;3.90;83.80;;;;;;5094955;28;20023;-66
2022/01/29 02:12:24;;;;;;;19.42;18.13;;;3.90;84.00;;;;;;5102044;28;20024;-65
2022/01/29 02:14:50;;;;;;;18.08;16.75;;;4.00;84.10;;;;;;5084852;28;20031;-65
2022/01/29 02:17:16;;;;;;;15.88;14.88;;;4.00;83.90;;;;;;5094828;28;20082;-65
2022/01/29 02:19:42;;;;;;;16.80;15.82;;;4.00;83.80;;;;;;5094707;28;20081;-65
2022/01/29 02:22:08;;;;;;;17.50;16.08;;;3.90;83.80;;;;;;5094578;28;20024;-65
2022/01/29 02:24:34;;;;;;;16.45;15.55;;;3.90;83.70;;;;;;5094349;28;20047;-66
2022/01/29 02:26:59;;;;;;;15.35;14.48;;;3.90;83.80;;;;;;5094637;28;20035;-66
2022/01/29 02:29:26;;;;;;;13.82;13.23;;;3.90;83.90;;;;;;5094633;28;20031;-66
2022/01/29 02:31:54;;;;;;;15.85;14.82;;;3.90;83.90;;;;;;5076609;28;20032;-66
2022/01/29 02:34:21;;;;;;;14.32;13.52;;;3.90;83.90;;;;;;5076530;28;20355;-66
2022/01/29 02:36:47;;;;;;;15.85;14.85;;;3.90;83.80;;;;;;5076348;28;20024;-66
2022/01/29 02:39:14;;;;;;;15.82;15.05;;;3.80;83.70;;;;;;5094403;28;20031;-65
2022/01/29 02:41:43;;;;;;;16.02;15.20;;;3.80;83.70;;;;;;5076131;28;20028;-65
2022/01/29 02:44:10;;;;;;;16.10;15.20;;;3.80;83.80;;;;;;5094295;28;20097;-66
2022/01/29 02:46:49;;;;;;;16.85;15.85;;;3.90;84.50;;;;;;5076021;28;20034;-65
2022/01/29 02:49:17;;;;;;;15.07;14.25;;;3.90;83.80;;;;;;5076102;28;20024;-66
2022/01/29 02:51:47;;;;;;;15.95;14.88;;;3.80;83.60;;;;;;5075991;28;20374;-67
2022/01/29 02:54:14;;;;;;;15.15;14.23;;;3.90;83.80;;;;;;5075656;28;20036;-65
2022/01/29 02:56:40;;;;;;;15.57;14.55;;;3.90;83.80;;;;;;5094419;28;20024;-66
2022/01/29 02:59:05;;;;;;;15.52;14.73;;;3.90;83.70;;;;;;5093973;28;20415;-65
2022/01/29 03:01:31;;;;;;;14.98;14.23;;;3.90;83.60;;;;;;5075921;28;20031;-65
2022/01/29 03:03:57;;;;;;;14.70;13.82;;;3.90;83.50;;;;;;5093951;28;20043;-66
2022/01/29 03:06:22;;;;;;;16.95;16.08;;;3.90;83.60;;;;;;5093934;28;20023;-66
2022/01/29 03:08:48;;;;;;;15.35;14.50;;;3.90;83.70;;;;;;5075834;28;20073;-65
2022/01/29 03:11:19;;;;;;;16.25;15.43;;;3.90;83.70;;;;;;5075774;28;20039;-65
2022/01/29 03:13:45;;;;;;;14.13;13.48;;;3.90;83.50;;;;;;5075594;28;20053;-65
2022/01/29 03:16:10;;;;;;;13.93;13.32;;;3.90;83.60;;;;;;5093694;28;20032;-65
2022/01/29 03:18:36;;;;;;;18.27;17.42;;;3.90;83.60;;;;;;5075793;28;20051;-65
2022/01/29 03:21:02;;;;;;;16.30;15.50;;;3.90;83.40;;;;;;5075661;28;20466;-65
2022/01/29 03:23:27;;;;;;;14.25;13.55;;;3.90;83.30;;;;;;5093628;28;20044;-66
2022/01/29 03:25:53;;;;;;;16.55;15.77;;;3.90;83.30;;;;;;5075530;28;20026;-65
2022/01/29 03:28:19;;;;;;;15.07;14.30;;;3.80;83.20;;;;;;5093773;28;20082;-65
2022/01/29 03:30:44;;;;;;;16.48;15.63;;;3.80;83.30;;;;;;5094023;28;20340;-66
2022/01/29 03:33:10;;;;;;;14.02;13.35;;;3.80;83.30;;;;;;5075486;28;20354;-65
2022/01/29 03:35:37;;;;;;;14.55;13.85;;;3.70;83.30;;;;;;5075508;28;20028;-65
2022/01/29 03:38:03;;;;;;;17.15;16.45;;;3.80;83.40;;;;;;5093374;28;20094;-66
2022/01/29 03:40:30;;;;;;;16.55;15.65;;;3.80;83.50;;;;;;5093588;28;20029;-65
2022/01/29 03:43:08;;;;;;;16.23;15.20;;;3.80;83.40;;;;;;5093461;28;20016;-65
2022/01/29 03:45:34;;;;;;;18.15;17.15;;;3.80;83.40;;;;;;5093688;28;20055;-64
2022/01/29 03:48:00;;;;;;;14.02;13.23;;;3.80;83.30;;;;;;5093344;28;20032;-64
2022/01/29 03:50:26;;;;;;;14.52;13.73;;;3.80;83.20;;;;;;5093258;28;20373;-65
2022/01/29 03:52:52;;;;;;;15.93;15.13;;;3.80;83.20;;;;;;5075444;28;20081;-65
2022/01/29 03:55:18;;;;;;;15.75;14.85;;;3.80;83.20;;;;;;5093741;28;20030;-67
2022/01/29 03:57:43;;;;;;;16.02;15.23;;;3.80;83.40;;;;;;5093411;28;20411;-66
2022/01/29 04:00:10;;;;;;;15.52;14.82;;;3.80;83.30;;;;;;5093471;28;20028;-66
2022/01/29 04:02:35;;;;;;;15.50;14.88;;;3.80;83.30;;;;;;5075120;28;20021;-65
2022/01/29 04:05:01;;;;;;;13.20;12.60;;;3.80;83.20;;;;;;5075262;28;20036;-65
2022/01/29 04:07:27;;;;;;;14.88;14.27;;;3.80;83.10;;;;;;5097196;28;20027;-66
2022/01/29 04:09:54;;;;;;;15.18;14.38;;;3.70;83.20;;;;;;5097592;28;20028;-66
2022/01/29 04:12:20;;;;;;;13.52;12.93;;;3.70;83.10;;;;;;5078832;28;20024;-65
2022/01/29 04:14:45;;;;;;;15.65;14.85;;;3.60;83.00;;;;;;5097009;28;20028;-65
2022/01/29 04:17:11;;;;;;;15.38;14.57;;;3.60;83.20;;;;;;5097032;28;20030;-66
2022/01/29 04:19:38;;;;;;;14.50;13.77;;;3.50;83.30;;;;;;5078846;28;20032;-66
2022/01/29 04:22:05;;;;;;;15.80;15.00;;;3.50;83.60;;;;;;5078712;28;20028;-66
2022/01/29 04:24:32;;;;;;;15.02;14.27;;;3.50;83.60;;;;;;5097241;28;20052;-67
2022/01/29 04:26:59;;;;;;;16.25;15.45;;;3.50;83.70;;;;;;5096952;28;20385;-65
2022/01/29 04:29:28;;;;;;;15.65;14.77;;;3.50;84.00;;;;;;5096913;28;20048;-66
2022/01/29 04:34:20;;;;;;;16.17;15.18;;;3.40;84.10;;;;;;5096845;28;20035;-65
2022/01/29 04:36:46;;;;;;;18.38;17.40;;;3.40;84.10;;;;;;5096671;28;20482;-65
2022/01/29 04:39:15;;;;;;;15.45;14.65;;;3.40;84.30;;;;;;5103628;28;20032;-66
2022/01/29 04:41:41;;;;;;;16.42;15.50;;;3.40;84.40;;;;;;5102081;28;20024;-66
2022/01/29 04:44:07;;;;;;;14.90;14.10;;;3.40;84.40;;;;;;5096575;28;20036;-65
2022/01/29 04:46:33;;;;;;;14.00;13.25;;;3.40;84.50;;;;;;5096496;28;20028;-65
2022/01/29 04:48:58;;;;;;;15.63;14.82;;;3.40;84.50;;;;;;5078364;28;20477;-65
2022/01/29 04:51:24;;;;;;;15.75;14.85;;;3.40;84.40;;;;;;5096454;28;20035;-66
2022/01/29 04:53:50;;;;;;;14.80;14.20;;;3.30;84.30;;;;;;5096514;28;20036;-66
2022/01/29 04:56:15;;;;;;;17.20;16.20;;;3.30;84.30;;;;;;5096409;28;20027;-65
2022/01/29 04:58:41;;;;;;;18.58;17.77;;;3.30;84.40;;;;;;5078139;28;20021;-64
2022/01/29 05:01:07;;;;;;;15.77;14.98;;;3.30;84.30;;;;;;5096211;28;20046;-66
2022/01/29 05:03:33;;;;;;;16.85;15.98;;;3.30;84.40;;;;;;5095823;28;20036;-65
2022/01/29 05:06:00;;;;;;;16.42;15.52;;;3.40;84.40;;;;;;5078231;28;20032;-66
2022/01/29 05:08:26;;;;;;;15.90;15.07;;;3.30;84.30;;;;;;5077856;28;20028;-65
2022/01/29 05:10:53;;;;;;;15.40;14.68;;;3.30;84.20;;;;;;5095773;28;20051;-67
2022/01/29 05:13:23;;;;;;;16.50;15.60;;;3.30;84.20;;;;;;5095756;28;20028;-66
2022/01/29 05:26:58;;;;;;;16.23;15.32;;;3.50;83.80;;;;;;5094005;28;20035;-65
2022/01/29 05:29:28;;;;;;;15.70;15.00;;;3.50;83.90;;;;;;5093990;28;20030;-66
2022/01/29 05:31:54;;;;;;;15.75;14.77;;;3.50;83.80;;;;;;5075979;28;20046;-66
2022/01/29 05:34:21;;;;;;;19.17;18.20;;;3.60;83.80;;;;;;5094030;28;20036;-66
2022/01/29 05:36:47;;;;;;;15.43;14.68;;;3.50;83.80;;;;;;5094088;28;20016;-67
2022/01/29 05:39:12;;;;;;;17.33;16.42;;;3.60;83.70;;;;;;5093878;28;20073;-65
2022/01/29 05:41:38;;;;;;;17.67;16.67;;;3.60;83.60;;;;;;5075696;28;20024;-66
2022/01/29 05:44:04;;;;;;;18.70;15.77;;;3.50;83.40;;;;;;5093242;28;20051;-65
2022/01/29 05:46:30;;;;;;;19.23;18.02;;;3.50;83.60;;;;;;5093581;28;20024;-65
2022/01/29 05:48:55;;;;;;;15.68;14.77;;;3.60;83.70;;;;;;5093890;28;20368;-64
2022/01/29 05:51:21;;;;;;;15.68;14.93;;;3.60;83.70;;;;;;5076710;28;20063;-64
2022/01/29 05:53:47;;;;;;;18.77;17.67;;;3.60;83.50;;;;;;5075170;28;20036;-64
2022/01/29 05:56:13;;;;;;;15.85;14.98;;;3.50;83.30;;;;;;5093489;28;20031;-65
2022/01/29 05:58:38;;;;;;;16.50;15.50;;;3.60;83.40;;;;;;5093635;28;20020;-64
2022/01/29 06:01:04;;;;;;;17.88;16.98;;;3.60;83.40;;;;;;5075308;28;20433;-65
2022/01/29 06:03:30;;;;;;;15.63;14.70;;;3.60;83.60;;;;;;5075176;28;20044;-65
2022/01/29 06:05:55;;;;;;;18.92;17.73;;;3.60;83.40;;;;;;5093000;28;20024;-66
2022/01/29 06:08:22;;;;;;;19.33;17.92;;;3.60;83.50;;;;;;5094403;28;20088;-65
2022/01/29 06:10:48;;;;;;;15.93;15.02;;;3.60;83.40;;;;;;5076583;28;20028;-65
2022/01/29 06:13:15;;;;;;;17.25;16.20;;;3.60;83.30;;;;;;5076515;28;20028;-66
2022/01/29 06:15:47;;;;;;;16.15;15.35;;;3.60;83.40;;;;;;5094671;28;20024;-66
2022/01/29 06:18:18;;;;;;;18.58;17.50;;;3.60;83.40;;;;;;5094658;28;20031;-66
2022/01/29 06:20:45;;;;;;;16.38;15.40;;;3.60;83.40;;;;;;5094765;28;20028;-66
2022/01/29 06:23:12;;;;;;;16.98;15.52;;;3.60;83.30;;;;;;5093983;28;20554;-67
2022/01/29 06:25:38;;;;;;;16.70;15.82;;;3.60;83.20;;;;;;5094355;28;20020;-64
2022/01/29 06:28:04;;;;;;;15.90;15.10;;;3.60;83.00;;;;;;5093718;28;20031;-65
2022/01/29 06:30:30;;;;;;;15.70;14.90;;;3.50;82.90;;;;;;5074982;28;20107;-72
2022/01/29 06:32:56;;;;;;;16.95;15.88;;;3.50;83.00;;;;;;5094302;28;20047;-64
2022/01/29 06:35:22;;;;;;;15.90;14.90;;;3.50;83.00;;;;;;5076076;28;20124;-66
2022/01/29 06:37:50;;;;;;;15.73;14.63;;;3.50;83.20;;;;;;5094294;28;20020;-65
2022/01/29 06:40:16;;;;;;;20.48;18.88;;;3.60;83.30;;;;;;5093856;28;20099;-65
2022/01/29 06:42:41;;;;;;;17.55;16.35;;;3.60;83.30;;;;;;5074327;28;20521;-65
2022/01/29 06:45:08;;;;;;;17.90;16.80;;;3.60;83.10;;;;;;5074319;28;20444;-66
2022/01/29 06:47:33;;;;;;;19.00;17.73;;;3.70;83.00;;;;;;5074446;28;20370;-65
2022/01/29 06:49:59;;;;;;;18.33;17.33;;;3.70;83.00;;;;;;5092601;28;20024;-64
2022/01/29 06:52:25;;;;;;;17.75;16.63;;;3.70;82.80;;;;;;5092442;28;20020;-65
2022/01/29 06:54:50;;;;;;;16.95;16.13;;;3.80;83.00;;;;;;5091580;28;20143;-62
2022/01/29 06:57:16;;;;;;;16.73;15.73;;;3.80;83.00;;;;;;5092278;28;20382;-65
2022/01/29 06:59:45;;;;;;;16.10;15.13;;;3.90;83.00;;;;;;5092422;28;20048;-64
2022/01/29 07:02:10;;;;;;;17.95;16.75;;;4.00;82.90;;;;;;5090395;28;20547;-63
2022/01/29 07:04:36;;;;;;;17.88;16.58;;;4.00;82.90;;;;;;5082526;28;20028;-63
2022/01/29 07:07:02;;;;;;;16.95;15.98;;;4.10;82.90;;;;;;5099780;28;20020;-64
2022/01/29 07:09:28;;;;;;;19.05;17.52;;;4.10;82.50;;;;;;5070758;28;20031;-63
2022/01/29 07:11:58;;;;;;;16.83;16.02;;;4.20;82.70;;;;;;5090490;28;20470;-63
2022/01/29 07:14:24;;;;;;;15.65;14.75;;;4.20;82.30;;;;;;5072660;28;20037;-64
2022/01/29 07:16:50;;;;;;;17.77;16.77;;;4.20;82.00;;;;;;5090828;28;20099;-64
2022/01/29 07:19:16;;;;;;;16.90;15.90;;;4.20;82.10;;;;;;5091499;28;20158;-64
2022/01/29 07:21:41;;;;;;;16.55;15.65;;;4.20;82.00;;;;;;5092120;28;20024;-64
2022/01/29 07:24:07;;;;;;;17.08;16.05;;;4.30;82.00;;;;;;5073752;28;20048;-64
2022/01/29 07:26:33;;;;;;;17.23;16.20;;;4.30;81.90;;;;;;5091913;28;20012;-65
2022/01/29 07:28:59;;;;;;;16.58;15.63;;;4.40;81.50;;;;;;5073838;28;20051;-66
2022/01/29 07:31:24;;;;;;;16.95;15.93;;;4.40;81.60;;;;;;5092423;28;20016;-64
2022/01/29 07:33:50;;;;;;;15.68;14.65;;;4.50;81.20;;;;;;5092024;28;20028;-65
2022/01/29 07:36:16;;;;;;;15.27;14.35;;;4.40;80.60;;;;;;5090236;28;20032;-64
2022/01/29 07:38:41;;;;;;;16.75;15.57;;;4.40;80.10;;;;;;5092828;28;20435;-64
2022/01/29 07:41:07;;;;;;;16.77;15.80;;;4.30;79.70;;;;;;5097048;28;20477;-66
2022/01/29 07:43:33;;;;;;;16.40;15.55;;;4.30;79.90;;;;;;5079287;28;20123;-65
2022/01/29 07:45:58;;;;;;;17.77;16.92;;;4.30;80.10;;;;;;5095120;28;20028;-66
2022/01/29 07:48:24;;;;;;;15.82;15.00;;;4.40;80.10;;;;;;5095902;28;20020;-65
2022/01/29 07:50:51;;;;;;;15.43;14.30;;;4.40;80.10;;;;;;5078041;28;20028;-65
2022/01/29 07:53:16;;;;;;;13.85;13.25;;;4.40;79.30;;;;;;5078093;28;20063;-65
2022/01/29 07:55:42;;;;;;;14.50;13.80;;;4.40;79.10;;;;;;5095961;28;21299;-65
2022/01/29 07:58:09;;;;;;;14.57;13.57;;;4.40;79.20;;;;;;5075108;28;20043;-64
2022/01/29 08:00:35;;;;;;;15.13;14.25;;;4.40;79.10;;;;;;5096000;28;20042;-65
2022/01/29 08:03:00;;;;;;;14.25;13.40;;;4.60;79.10;;;;;;5095952;28;20466;-65
2022/01/29 08:05:26;;;;;;;15.80;14.90;;;4.50;78.50;;;;;;5077055;28;20055;-64
2022/01/29 08:07:52;;;;;;;16.55;15.55;;;4.60;78.80;;;;;;5095376;28;20360;-65
2022/01/29 08:10:18;;;;;;;15.07;14.02;;;4.70;78.80;;;;;;5095288;28;20024;-67
2022/01/29 08:12:43;;;;;;;13.60;12.77;;;4.70;77.80;;;;;;5095273;28;20039;-66
2022/01/29 08:15:10;;;;;;;13.80;13.18;;;4.70;78.10;;;;;;5095365;28;20024;-65
2022/01/29 08:17:35;;;;;;;13.93;13.23;;;4.70;77.50;;;;;;5095651;28;20012;-65
2022/01/29 08:20:01;;;;;;;15.07;14.18;;;4.70;76.90;;;;;;5077287;28;20780;-64
2022/01/29 08:22:28;;;;;;;14.88;13.82;;;4.70;76.90;;;;;;5077075;28;20025;-65
2022/01/29 08:24:57;;;;;;;12.65;12.05;;;4.80;77.20;;;;;;5077240;28;20367;-66
2022/01/29 08:27:23;;;;;;;13.85;13.20;;;4.70;76.10;;;;;;5094968;28;20107;-65
2022/01/29 08:29:49;;;;;;;16.20;15.25;;;4.70;76.50;;;;;;5095158;28;20020;-65
2022/01/29 08:32:15;;;;;;;16.23;15.27;;;4.70;76.30;;;;;;5094730;28;20024;-66
2022/01/29 08:34:43;;;;;;;15.73;14.93;;;4.70;76.10;;;;;;5096283;28;20437;-66
2022/01/29 08:37:12;;;;;;;14.32;13.63;;;4.60;75.60;;;;;;5093303;28;20043;-67
2022/01/29 08:39:38;;;;;;;15.05;14.13;;;4.70;76.40;;;;;;5095607;28;20027;-66
2022/01/29 08:42:05;;;;;;;14.63;13.77;;;4.70;76.70;;;;;;5096097;28;20022;-66
2022/01/29 08:44:31;;;;;;;16.42;15.57;;;4.70;76.70;;;;;;5096266;28;20047;-65
2022/01/29 08:46:56;;;;;;;16.40;15.45;;;4.60;76.40;;;;;;5096002;28;20101;-67
2022/01/29 08:49:22;;;;;;;19.25;18.08;;;4.50;76.80;;;;;;5094730;28;20036;-66
2022/01/29 08:51:48;;;;;;;16.77;15.70;;;4.50;77.70;;;;;;5087997;28;20040;-67
2022/01/29 08:54:14;;;;;;;17.58;16.13;;;4.50;77.70;;;;;;5082432;28;20032;-67
2022/01/29 08:56:39;;;;;;;16.60;15.20;;;4.40;78.10;;;;;;5058097;28;20029;-67
2022/01/29 08:59:05;;;;;;;19.83;18.17;;;4.40;78.70;;;;;;5076252;28;20035;-66
2022/01/29 09:01:31;;;;;;;18.27;17.17;;;4.60;79.40;;;;;;5093998;28;20078;-66
2022/01/29 09:04:02;;;;;;;17.08;15.77;;;4.70;79.60;;;;;;5096587;28;20459;-67
2022/01/29 09:06:28;;;;;;;19.65;18.38;;;4.70;79.20;;;;;;5090873;28;20081;-68
2022/01/29 09:08:54;;;;;;;17.08;15.70;;;4.80;79.70;;;;;;5077900;28;20377;-66
2022/01/29 09:11:20;;;;;;;20.42;19.27;;;4.90;79.70;;;;;;5077971;28;20123;-66
2022/01/29 09:13:47;;;;;;;15.90;14.80;;;4.90;79.50;;;;;;5096065;28;20036;-66
2022/01/29 09:16:15;;;;;;;18.63;17.70;;;4.90;79.00;;;;;;5096114;28;20028;-66
2022/01/29 09:18:41;;;;;;;20.77;19.35;;;4.80;78.90;;;;;;5096083;28;20081;-66
2022/01/29 09:21:06;;;;;;;19.02;17.85;;;4.80;79.20;;;;;;5096185;28;20023;-65
2022/01/29 09:23:32;;;;;;;20.08;18.67;;;4.90;79.40;;;;;;5096162;28;20055;-66
2022/01/29 09:25:58;;;;;;;18.15;17.23;;;4.90;79.20;;;;;;5096369;28;20028;-66
2022/01/29 09:28:24;;;;;;;18.45;17.10;;;5.00;78.90;;;;;;5107288;28;20045;-66
2022/01/29 09:30:50;;;;;;;19.33;18.08;;;5.00;79.10;;;;;;5080515;28;20028;-67
2022/01/29 09:33:16;;;;;;;19.10;18.10;;;5.00;78.30;;;;;;5077974;28;20369;-68
2022/01/29 09:35:43;;;;;;;17.15;16.10;;;4.90;77.70;;;;;;5094125;28;20028;-68
2022/01/29 09:38:10;;;;;;;18.55;17.45;;;4.90;77.60;;;;;;5094982;28;20113;-66
2022/01/29 09:40:37;;;;;;;17.95;16.63;;;4.80;77.30;;;;;;5095767;28;20086;-65
2022/01/29 09:43:06;;;;;;;15.77;14.80;;;4.80;77.40;;;;;;5092120;28;20028;-66
2022/01/29 09:45:35;;;;;;;15.73;14.60;;;4.90;77.50;;;;;;5093959;28;20023;-65
2022/01/29 09:48:03;;;;;;;15.95;14.95;;;4.90;77.30;;;;;;5093609;28;20032;-65
2022/01/29 09:50:31;;;;;;;18.48;17.58;;;4.90;77.30;;;;;;5075422;28;20027;-65
2022/01/29 09:52:57;;;;;;;19.33;18.33;;;4.90;76.50;;;;;;5075674;28;20044;-67
2022/01/29 09:55:23;;;;;;;17.20;16.23;;;4.90;76.50;;;;;;5093779;28;20035;-66
2022/01/29 09:57:49;;;;;;;18.23;16.90;;;4.90;76.80;;;;;;5093679;28;20043;-65
2022/01/29 10:00:18;;;;;;;17.30;16.35;;;5.00;76.60;;;;;;5093766;28;20482;-66
2022/01/29 10:03:04;;;;;;;17.88;16.65;;;5.10;76.60;;;;;;5073614;28;20466;-67
2022/01/29 10:05:41;;;;;;;16.77;15.80;;;5.10;76.40;;;;;;5073439;28;20120;-65
2022/01/29 10:08:07;;;;;;;18.92;17.92;;;5.10;75.70;;;;;;5092187;28;20066;-65
2022/01/29 10:10:40;;;;;;;16.55;15.23;;;5.10;75.30;;;;;;5092088;28;20028;-64
2022/01/29 10:13:23;;;;;;;15.82;14.93;;;5.00;75.40;;;;;;5073523;28;20026;-64
2022/01/29 10:15:50;;;;;;;16.13;14.77;;;4.90;75.40;;;;;;5072455;28;20115;-65
2022/01/29 10:18:25;;;;;;;19.00;18.05;;;5.00;75.50;;;;;;5091590;28;20028;-65
2022/01/29 10:21:11;;;;;;;16.88;15.85;;;4.80;74.60;;;;;;5072245;28;20031;-66
2022/01/29 10:23:37;;;;;;;16.35;15.38;;;4.70;75.00;;;;;;5073416;28;20051;-65
2022/01/29 10:26:04;;;;;;;16.13;15.10;;;4.80;75.30;;;;;;5091471;28;20028;-65
2022/01/29 10:28:31;;;;;;;16.52;15.63;;;4.70;75.00;;;;;;5092088;28;20024;-66
2022/01/29 10:31:03;;;;;;;16.35;15.57;;;4.60;75.10;;;;;;5092570;28;20024;-65
2022/01/29 10:33:35;;;;;;;16.65;15.77;;;4.60;75.40;;;;;;5094301;28;20107;-65
2022/01/29 10:36:04;;;;;;;16.83;15.82;;;4.60;75.60;;;;;;5088712;28;20081;-66
2022/01/29 10:38:57;;;;;;;19.05;18.13;;;4.60;75.30;;;;;;5091743;28;20024;-67
2022/01/29 10:41:31;;;;;;;16.60;15.80;;;4.50;75.50;;;;;;5091867;28;20035;-65
2022/01/29 10:44:12;;;;;;;15.90;15.15;;;4.60;75.40;;;;;;5073215;28;20024;-66
2022/01/29 10:46:55;;;;;;;16.40;15.65;;;4.60;75.20;;;;;;5091239;28;20023;-67
2022/01/29 10:49:33;;;;;;;14.77;13.98;;;4.50;74.40;;;;;;5089165;28;20053;-66
2022/01/29 10:52:08;;;;;;;14.82;14.02;;;4.40;74.70;;;;;;5073216;28;20053;-66
2022/01/29 10:54:39;;;;;;;16.27;15.32;;;4.30;74.50;;;;;;5090654;28;20028;-65
2022/01/29 10:57:10;;;;;;;16.40;15.50;;;4.20;74.90;;;;;;5090496;28;20074;-66
2022/01/29 10:59:44;;;;;;;17.27;15.93;;;4.20;75.60;;;;;;5072307;28;20023;-67
2022/01/29 11:02:14;;;;;;;16.90;15.88;;;4.20;75.90;;;;;;5092306;28;20020;-66
2022/01/29 11:04:41;;;;;;;17.90;16.70;;;4.20;76.10;;;;;;5091866;28;20028;-66
2022/01/29 11:07:18;;;;;;;17.67;16.50;;;4.30;76.20;;;;;;5091996;28;20020;-67
2022/01/29 11:09:51;;;;;;;14.93;14.10;;;4.40;76.30;;;;;;5091056;28;20068;-65
2022/01/29 11:12:18;;;;;;;15.05;14.25;;;4.30;75.10;;;;;;5090365;28;20028;-68
2022/01/29 11:14:45;;;;;;;15.65;14.85;;;4.30;75.10;;;;;;5091647;28;20107;-70
2022/01/29 11:17:11;;;;;;;17.25;16.30;;;4.30;76.00;;;;;;5092019;28;20027;-65
2022/01/29 11:19:39;;;;;;;16.25;15.32;;;4.30;75.20;;;;;;5091577;28;20050;-67
2022/01/29 11:22:07;;;;;;;16.23;15.13;;;4.30;74.70;;;;;;5073534;28;20031;-66
2022/01/29 11:24:36;;;;;;;14.80;14.10;;;4.30;74.90;;;;;;5090973;28;20118;-64
2022/01/29 11:27:17;;;;;;;17.38;16.38;;;4.40;74.80;;;;;;5090749;28;20355;-66
2022/01/29 11:30:10;;;;;;;15.88;15.07;;;4.40;74.60;;;;;;5073766;28;20386;-66
2022/01/29 11:32:44;;;;;;;17.92;16.67;;;4.30;74.30;;;;;;5093230;28;20089;-82
2022/01/29 11:35:17;;;;;;;17.85;16.70;;;4.30;74.20;;;;;;5075752;28;20051;-72
2022/01/29 11:38:00;;;;;;;16.80;15.82;;;4.30;74.40;;;;;;5092795;28;20047;-66
2022/01/29 11:40:27;;;;;;;15.85;14.77;;;4.40;74.50;;;;;;5088830;28;20024;-69
2022/01/29 11:42:56;;;;;;;19.27;18.17;;;4.30;74.30;;;;;;5092526;28;20024;-65
2022/01/29 11:45:53;;;;;;;15.13;14.20;;;4.30;74.30;;;;;;5075612;28;20028;-63
2022/01/29 11:48:28;;;;;;;18.27;17.40;;;4.30;74.30;;;;;;5093130;28;20036;-66
2022/01/29 11:50:56;;;;;;;17.23;16.10;;;4.20;73.70;;;;;;5092515;28;20378;-63
2022/01/29 11:53:23;;;;;;;16.60;15.70;;;4.20;73.50;;;;;;5105559;28;20062;-65
2022/01/29 11:55:54;;;;;;;15.82;15.13;;;4.10;73.40;;;;;;5076518;28;20032;-74
2022/01/29 11:58:26;;;;;;;18.48;17.27;;;4.20;73.80;;;;;;5075549;28;20020;-65
2022/01/29 12:01:00;;;;;;;18.40;17.42;;;4.20;73.70;;;;;;5092459;28;20051;-65
2022/01/29 12:03:35;;;;;;;17.23;16.00;;;4.20;73.80;;;;;;5093255;28;20040;-68
2022/01/29 12:06:08;;;;;;;18.70;17.70;;;4.20;73.50;;;;;;5093298;28;20064;-66
2022/01/29 12:08:41;;;;;;;15.65;14.60;;;4.20;73.80;;;;;;5093793;28;20020;-68
2022/01/29 12:11:13;;;;;;;17.23;16.35;;;4.30;73.60;;;;;;5075365;28;20382;-66
2022/01/29 12:14:09;;;;;;;17.95;16.63;;;4.30;73.70;;;;;;5090565;28;20020;-67
2022/01/29 12:16:55;;;;;;;16.20;15.00;;;4.30;73.50;;;;;;5090535;28;20032;-70
2022/01/29 12:19:46;;;;;;;16.05;14.93;;;4.30;73.30;;;;;;5075178;28;20433;-70
2022/01/29 12:22:23;;;;;;;16.83;15.77;;;4.20;72.70;;;;;;5074022;28;20040;-75
2022/01/29 12:24:59;;;;;;;17.02;16.02;;;4.10;72.70;;;;;;5073372;28;20161;-70
2022/01/29 12:27:42;;;;;;;17.98;16.48;;;4.10;73.20;;;;;;5074524;28;20024;-73
2022/01/29 12:30:09;;;;;;;15.90;14.90;;;4.10;73.20;;;;;;5076560;28;20105;-72
2022/01/29 12:32:35;;;;;;;15.48;14.57;;;4.10;73.10;;;;;;5077019;28;20474;-69
2022/01/29 12:35:03;;;;;;;15.65;14.75;;;4.00;73.10;;;;;;5095138;28;20114;-74
2022/01/29 12:37:30;;;;;;;14.88;13.88;;;4.00;73.10;;;;;;5075982;28;20024;-73
2022/01/29 12:40:21;;;;;;;15.30;14.32;;;4.00;73.10;;;;;;5075854;28;20078;-71
2022/01/29 12:42:56;;;;;;;15.55;14.75;;;3.90;73.20;;;;;;5075491;28;20485;-70
2022/01/29 12:45:24;;;;;;;19.30;18.25;;;4.00;72.90;;;;;;5094842;28;20031;-71
2022/01/29 12:47:50;;;;;;;16.95;15.95;;;4.00;73.10;;;;;;5077960;28;20028;-72
2022/01/29 12:50:21;;;;;;;17.45;16.27;;;4.00;73.20;;;;;;5096153;28;20031;-65
2022/01/29 12:52:48;;;;;;;16.73;15.68;;;4.00;73.10;;;;;;5096504;28;20101;-70
2022/01/29 12:55:14;;;;;;;19.98;18.80;;;4.00;72.90;;;;;;5076561;28;20498;-69